Larissa , Thessalia , Greece
39° 38' 00"N, 22° 25' 00"E, Elevation 263 ft.
Χειμερινή Time

Hourly observations for the last 48 hours

Date

Time

Temperature (°C) Humi-
dity
(%)
Wind
(kmph)
Pressure Rain (mm) Sun
(W/m2)
UV ET
(mm)
Air Dew 6 Hour 1 Hr 3 Hr 6 Hr Day
Alt
(in)
Sea
Level
(mb)
Max Min
19 21:00 13.5 11.0 85 E 1 G 4 29.73 1006.8 0.40 0 0.0 0.965
19 20:00 13.9 11.6 17.9 13.9 86 ENE 0 G 3 29.74 1007.0 0.40 0 0.0 0.965
19 19:00 14.4 11.8 84 S 1 G 4 29.74 1007.0 0.40 0 0.0 0.940
19 18:00 15.1 12.1 82 Calm 29.73 1006.9 0.40 0 0.0 0.940
19 17:00 16.1 11.6 75 S 1 G 4 29.73 1006.9 0.40 0 0.0 0.914
19 16:00 17.4 11.3 67 E 5 G 8 29.73 1006.7 0.40 103 0.0 0.787
19 15:00 17.3 10.9 66 ENE 0 G 8 29.73 1006.9 0.40 276 0.0 0.610
19 14:00 17.3 10.9 17.3 12.1 66 W 0 G 4 29.75 1007.6 0.40 0.40 184 0.0 0.432
19 13:00 16.4 11.5 73 NW 3 G 4 29.77 1008.1 0.40 340 0.0 0.432
19 12:00 15.3 10.7 74 NNW 1 G 4 29.79 1009.0 0.40 154 0.0 0.279
19 11:00 14.2 11.6 84 WNW 2 G 4 29.81 1009.5 0.40 0.40 0.40 283 0.0 0.152
19 10:00 13.2 10.2 82 W 0 G 6 29.81 1009.7 0.00 100 0.0 0.051
19 09:00 12.6 10.0 84 W 3 G 6 29.80 1009.2 0.00 19 0.0 0.025
19 08:00 12.1 10.4 12.6 11.8 89 Calm 29.79 1008.8 0.00 23 0.0 0.000
19 07:00 11.8 10.9 94 Calm 29.78 1008.4 0.00 0 0.0 0.000
19 06:00 12.0 11.4 96 Calm 29.77 1008.2 0.00 0 0.0 0.000
19 05:00 12.1 11.5 96 Calm 29.77 1008.2 0.00 0 0.0 0.000
19 04:00 12.1 11.3 95 NW 1 G 3 29.79 1008.7 0.00 0 0.0 0.000
19 03:00 12.3 11.2 93 Calm 29.79 1009.0 0.00 0 0.0 0.000
19 02:00 12.6 11.2 13.6 12.6 91 Calm 29.81 1009.4 0.00 0 0.0 0.000
19 01:00 13.0 11.2 89 Calm 29.81 1009.6 0.00 0 0.0 0.000
19 00:00 13.3 11.3 88 Calm 29.82 1010.0 0.40 0 0.0 0.000
18 23:00 13.3 11.0 86 Calm 29.82 1010.0 0.40 0 0.0 0.457
18 22:00 13.4 11.2 86 NNE 1 G 3 29.83 1010.2 0.40 0 0.0 0.457
18 21:00 13.3 11.0 86 WNW 0 G 3 29.83 1010.1 0.40 0 0.0 0.457
18 20:00 13.6 11.3 15.1 13.6 86 NW 0 G 4 29.82 1010.0 0.40 0 0.0 0.457
18 19:00 14.0 11.5 85 W 3 G 4 29.83 1010.0 0.40 0 0.0 0.457
18 18:00 14.5 11.5 82 WNW 2 G 3 29.82 1009.7 0.40 0 0.0 0.432
18 17:00 14.9 11.3 79 NW 0 G 3 29.82 1009.7 0.40 0 0.0 0.432
18 16:00 15.0 11.0 77 NNW 4 G 4 29.82 1009.7 0.40 103 0.0 0.406
18 15:00 14.6 12.1 85 NNW 0 G 4 29.82 1010.0 0.40 230 0.0 0.330
18 14:00 14.2 11.5 14.2 11.1 84 N 1 G 4 29.83 1010.2 0.20 0.20 0.40 136 0.0 0.254
18 13:00 14.0 11.5 85 ENE 0 G 3 29.84 1010.7 0.20 0.40 137 0.0 0.203
18 12:00 14.2 11.1 82 ENE 0 G 4 29.86 1011.2 0.20 83 0.0 0.127
18 11:00 13.7 11.1 84 Calm 29.88 1011.7 0.20 211 0.0 0.076
18 10:00 12.1 10.9 92 NNW 1 G 3 29.88 1011.8 0.20 131 0.0 0.025
18 09:00 11.4 10.6 95 N 2 G 3 29.88 1012.0 0.20 40 0.0 0.000
18 08:00 11.1 10.6 11.1 10.1 97 Calm 29.88 1011.7 0.20 0.20 0.20 13 0.0 0.000
18 07:00 10.6 10.2 97 NNE 2 G 3 29.86 1011.2 0.20 0 0.0 0.000
18 06:00 10.4 9.9 97 Calm 29.86 1011.3 0.20 0.20 0 0.0 0.000
18 05:00 10.1 9.5 96 Calm 29.86 1011.2 0.00 0 0.0 0.000
18 04:00 10.1 9.3 95 NE 0 G 1 29.87 1011.6 0.00 0 0.0 0.000
18 03:00 10.9 10.2 95 N 0 G 1 29.88 1011.8 0.00 0 0.0 0.000
18 02:00 10.9 10.0 13.5 10.9 94 SSE 0 G 3 29.89 1012.2 0.00 0 0.0 0.000
18 01:00 11.1 9.9 92 SE 0 G 1 29.88 1011.7 0.00 0 0.0 0.000
18 00:00 12.0 10.4 90 N 3 G 4 29.88 1012.0 7.63 0 0.0 0.000
17 23:00 12.0 10.6 91 W 3 G 6 29.89 1012.2 7.63 0 0.0 0.813
17 22:00 12.4 10.7 89 WNW 0 G 6 29.89 1012.2 7.63 0 0.0 0.813

Data generated by WxSolution Version 1.8.4.2, Build 2009.03.29.